Aérodrome :
LOGIN :

S'inscrire | Disclaimer

   EN    FR    IT 

 










Légende :    VFR   VFR Marginal   IFR   IFR Intensif   IFR Très Intensif
Visi : 
Plafond : 
>= 8 km
>= 3000ft
5 à 8 km
1000 à 3000 ft
1500m à 5 km
500 à 1000 ft
800 à 1500m
200 à 500 ft
< 800m
< 200 ft
Symboles :   Orages  Brouillard  Fortes neiges  Fortes précipitations  Vent > 20 kt
SIGMETs :   Divers  Orages  Givrage  Turbulence  Onde Orograph.  Cendres Volcan.







- Altitude de l'aérodrome : 326 ft
- Code IATA : LCG
- Voir les cartes d'approche


LECO - A Coruna

DERNIER METAR :
  • 280030Z AUTO 00000KT 9999 NCD 08/02 Q1020

METARs EXPIRÉS :
  • 280000Z AUTO VRB01KT 9999 NCD 08/02 Q1020
  • 272330Z AUTO VRB01KT 9999 NCD 08/02 Q1020
  • 272300Z 06003KT CAVOK 08/02 Q1020 NOSIG
  • 272230Z 05004KT 020V080 CAVOK 08/02 Q1020 NOSIG
  • 272200Z 04004KT 330V080 CAVOK 08/02 Q1021 NOSIG
  • 272130Z 05005KT 350V080 CAVOK 09/02 Q1021 NOSIG

TAF TAF LECO
Valide du 27 à 21h jusqu'au 28 à 21h UTC


272000Z 2721/2821 05015KT 9999 FEW030 TX18/2815Z TN02/2806Z
BECMG 2721/2724 07005KT
Pas de NOTAMs connus pour ce terrain.



MET'MAP, la Météo Aéronautique d'un coup d'oeil ! - Copyright ORBIFLY Décembre 2007 - Disclaimer

ORBIFLY MET'MAP TEAM :

Programmation & Développement : Alexandra Zaïnal
Conception & Développement : Baudouin d'Aumeries
Co-Programmation & Développement : Marc-Olivier Méhu
Soutien technique & logistique : Manuel Goepfert

Contact : metmap@orbifly.com




SOURCES & CREDITS :

   NOAA